Time;durP1;ratioP1;P1;durP2;ratioP2;P2;SDS_P1;SDS_P2;PMS_P1;PMS_P2;Temp;Humidity;BMP_temperature;BMP_pressure;BME280_temperature;BME280_humidity;BME280_pressure;Samples;Min_cycle;Max_cycle;Signal;HPM_P1;HPM_P2
2021/06/08 00:00:23;;;;;;;;;;;17.10;99.90;;;;;;3580461;40;19936;-73
2021/06/08 00:02:49;;;;;;;;;;;;;;;;;;3590702;40;19943;-73
2021/06/08 00:05:15;;;;;;;;;;;;;;;;;;3580706;40;19933;-73
2021/06/08 00:07:41;;;;;;;;;;;;;;;;;;3590054;40;19932;-73
2021/06/08 00:10:07;;;;;;;;;;;;;;;;;;3581269;40;19972;-73
2021/06/08 00:12:33;;;;;;;;;;;;;;;;;;3577268;40;20060;-73
2021/06/08 00:14:59;;;;;;;;;;;;;;;;;;3577463;40;19948;-73
2021/06/08 00:17:25;;;;;;;;;;;;;;;;;;3581069;40;19937;-73
2021/06/08 00:19:51;;;;;;;;;;;;;;;;;;3580758;40;19933;-73
2021/06/08 00:22:17;;;;;;;;;;;;;;;;;;3579937;40;19928;-73
2021/06/08 00:24:42;;;;;;;;;;;;;;;;;;3584147;40;19932;-73
2021/06/08 00:27:08;;;;;;;;;;;;;;;;;;3576954;40;19933;-74
2021/06/08 00:29:34;;;;;;;;;;;;;;;;;;3581396;40;19941;-72
2021/06/08 00:32:00;;;;;;;;;;;;;;;;;;3580181;40;19937;-74
2021/06/08 00:34:26;;;;;;;;;;;;;;;;;;3568872;40;19940;-73
2021/06/08 00:36:52;;;;;;;;;;;;;;;;;;3561662;40;19936;-73
2021/06/08 00:39:18;;;;;;;;;;;;;;;;;;3567885;40;20326;-73
2021/06/08 00:41:44;;;;;;;;;;;;;;;;;;3564149;40;19981;-75
2021/06/08 00:44:12;;;;;;;;;;;;;;;;;;3562378;40;19929;-74
2021/06/08 00:46:38;;;;;;;;;;;;;;;;;;3573115;40;19944;-73
2021/06/08 00:49:04;;;;;;;;;;;;;;;;;;3571210;40;19933;-74
2021/06/08 00:51:30;;;;;;;;;;;;;;;;;;3570645;40;20010;-73
2021/06/08 00:53:59;;;;;;;;;;;;;;;;;;3572019;40;20206;-73
2021/06/08 00:56:24;;;;;;;;;;;;;;;;;;3569901;40;19941;-73
2021/06/08 00:58:50;;;;;;;;;;;;;;;;;;3571876;40;20027;-73
2021/06/08 01:01:16;;;;;;;;;;;;;;;;;;3569443;40;19929;-73
2021/06/08 01:03:42;;;;;;;;;;;;;;;;;;3607275;23;19945;-67
2021/06/08 01:06:08;;;;;;;;;;;;;;;;;;3575981;40;19928;-66
2021/06/08 01:08:34;;;;;;;;;;;;;;;;;;3580707;40;20015;-67
2021/06/08 01:11:00;;;;;;;;;;;;;;;;;;3587476;40;20013;-66
2021/06/08 01:13:28;;;;;;;;;;;;;;;;;;3573471;40;19937;-66
2021/06/08 01:15:54;;;;;;;;;;;;;;;;;;3572892;40;19941;-66
2021/06/08 01:18:22;;;;;;;;;;;;;;;;;;3579624;40;19940;-66
2021/06/08 01:20:47;;;;;;;;;;;;;;;;;;3570859;40;19933;-66
2021/06/08 01:23:13;;;;;;;;;;;;;;;;;;3580586;40;20282;-66
2021/06/08 01:25:39;;;;;;;;;;;;;;;;;;3580345;40;19939;-66
2021/06/08 01:28:05;;;;;;;;;;;;;;;;;;3571153;40;19933;-66
2021/06/08 01:30:31;;;;;;;;;;;;;;;;;;3570261;40;19939;-66
2021/06/08 01:32:57;;;;;;;;;;;;;;;;;;3580568;40;20283;-66
2021/06/08 01:35:23;;;;;;;;;;;;;;;;;;3580401;40;19933;-66
2021/06/08 01:37:49;;;;;;;;;;;;;;;;;;3582407;40;19932;-67
2021/06/08 01:40:15;;;;;;;;;;;;;;;;;;3590318;40;19932;-66
2021/06/08 01:42:41;;;;;;;;;;;;;;;;;;3572597;40;19940;-67
2021/06/08 01:45:06;;;;;;;;;;;;;;;;;;3580335;40;19955;-66
2021/06/08 01:47:32;;;;;;;;;;;;;;;;;;3580351;40;19939;-67
2021/06/08 01:49:58;;;;;;;;;;;;;;;;;;3587067;40;20019;-66
2021/06/08 01:52:24;;;;;;;;;;;;;;;;;;3580520;40;20273;-66
2021/06/08 01:54:50;;;;;;;;;;;;;;;;;;3579815;40;20299;-66
2021/06/08 01:57:16;;;;;;;;;;;;;;;;;;3580215;40;19945;-67
2021/06/08 01:59:43;;;;;;;;;;;;;;;;;;3570841;40;19981;-66
2021/06/08 02:02:09;;;;;;;;;;;;;;;;;;3580212;40;19944;-67
2021/06/08 02:04:35;;;;;;;;;;;;;;;;;;3575424;40;19940;-67
2021/06/08 02:07:01;;;;;;;;;;;;;;;;;;3576291;40;19976;-67
2021/06/08 02:09:27;;;;;;;;;;;;;;;;;;3570144;40;19970;-66
2021/06/08 02:11:53;;;;;;;;;;;;;;;;;;3576850;40;19933;-67
2021/06/08 02:14:19;;;;;;;;;;;;;;;;;;3575251;40;20293;-66
2021/06/08 02:16:45;;;;;;;;;;;;;;;;;;3565148;40;20265;-66
2021/06/08 02:19:11;;;;;;;;;;;;;;;;;;3576316;40;19945;-66
2021/06/08 02:21:36;;;;;;;;;;;;;;;;;;3569160;40;19969;-66
2021/06/08 02:24:02;;;;;;;;;;;;;;;;;;3571754;40;20027;-66
2021/06/08 02:26:28;;;;;;;;;;;;;;;;;;3572314;40;20294;-67
2021/06/08 02:28:54;;;;;;;;;;;;;;;;;;3571860;40;19939;-66
2021/06/08 02:31:20;;;;;;;;;;;;;;;;;;3574861;40;19955;-67
2021/06/08 02:33:47;;;;;;;;;;;;;;;;;;3571830;40;19939;-67
2021/06/08 02:36:13;;;;;;;;;;;;;;;;;;3573580;40;20017;-66
2021/06/08 02:38:39;;;;;;;;;;;;;;;;;;3573465;40;19945;-67
2021/06/08 02:41:04;;;;;;;;;;;;;;;;;;3573470;40;19972;-67
2021/06/08 02:43:30;;;;;;;;;;;;;;;;;;3569707;40;20293;-67
2021/06/08 02:45:56;;;;;;;;;;;;;;;;;;3573221;40;19941;-68
2021/06/08 02:48:22;;;;;;;;;;;;;;;;;;3566451;40;20308;-68
2021/06/08 02:50:48;;;;;;;;;;;;;;;;;;3570050;40;20171;-68
2021/06/08 02:53:14;;;;;;;;;;;;;;;;;;3573640;40;19944;-68
2021/06/08 02:55:40;;;;;;;;;;;;;;;;;;3569889;40;19948;-68
2021/06/08 02:58:06;;;;;;;;;;;;;;;;;;3573175;40;19972;-68
2021/06/08 03:00:32;;;;;;;;;;;;;;;;;;3569162;40;20192;-67
2021/06/08 03:02:58;;;;;;;;;;;;;;;;;;3573620;40;20019;-66
2021/06/08 03:05:24;;;;;;;;;;;;;;;;;;3578601;40;19940;-67
2021/06/08 03:07:49;;;;;;;;;;;;;;;;;;3585485;40;20271;-67
2021/06/08 03:10:15;;;;;;;;;;;;;;;;;;3579669;40;19929;-66
2021/06/08 03:12:41;;;;;;;;;;;;;;;;;;3579782;40;20264;-67
2021/06/08 03:15:07;;;;;;;;;;;;;;;;;;3571250;40;19973;-66
2021/06/08 03:17:33;;;;;;;;;;;;;;;;;;3580689;40;19936;-67
2021/06/08 03:19:59;;;;;;;;;;;;;;;;;;3579887;40;20315;-67
2021/06/08 03:22:25;;;;;;;;;;;;;;;;;;3582662;40;19936;-67
2021/06/08 03:24:51;;;;;;;;;;;;;;;;;;3583506;40;19935;-67
2021/06/08 03:27:17;;;;;;;;;;;;;;;;;;3581463;40;19929;-67
2021/06/08 03:29:44;;;;;;;;;;;;;;;;;;3580830;40;19932;-66
2021/06/08 03:32:10;;;;;;;;;;;;;;;;;;3572214;40;19939;-67
2021/06/08 03:34:35;;;;;;;;;;;;;;;;;;3579687;40;19943;-67
2021/06/08 03:37:01;;;;;;;;;;;;;;;;;;3575482;40;20192;-67
2021/06/08 03:39:27;;;;;;;;;;;;;;;;;;3581593;40;19944;-67
2021/06/08 03:41:53;;;;;;;;;;;;;;;;;;3579592;40;19935;-67
2021/06/08 03:44:19;;;;;;;;;;;;;;;;;;3581930;40;19939;-66
2021/06/08 03:46:45;;;;;;;;;;;;;;;;;;3582628;40;20223;-66
2021/06/08 03:49:11;;;;;;;;;;;;;;;;;;3581072;40;19943;-67
2021/06/08 03:51:37;;;;;;;;;;;;;;;;;;3582040;40;19936;-67
2021/06/08 03:54:03;;;;;;;;;;;;;;;;;;3583955;40;20350;-67
2021/06/08 03:56:29;;;;;;;;;;;;;;;;;;3579593;40;19964;-67
2021/06/08 03:58:55;;;;;;;;;;;;;;;;;;3584974;40;19956;-67
2021/06/08 04:01:20;;;;;;;;;;;;;;;;;;3579866;40;19929;-67
2021/06/08 04:03:46;;;;;;;;;;;;;;;;;;3574453;40;19924;-67
2021/06/08 04:06:12;;;;;;;;;;;;;;;;;;3579421;40;20277;-67
2021/06/08 04:08:38;;;;;;;;;;;;;;;;;;3579229;40;19936;-67
2021/06/08 04:11:04;;;;;;;;;;;;;;;;;;3585257;40;19928;-67
2021/06/08 04:13:30;;;;;;;;;;;;;;;;;;3579268;40;19933;-67
2021/06/08 04:15:56;;;;;;;;;;;;;;;;;;3579391;40;19929;-67
2021/06/08 04:18:22;;;;;;;;;;;;;;;;;;3591879;39;19937;-67
2021/06/08 04:20:48;;;;;;;;;;;;;;;;;;3580859;40;19932;-67
2021/06/08 04:23:14;;;;;;;;;;;;;;;;;;3580695;40;19928;-67
2021/06/08 04:25:40;;;;;;;;;;;;;;;;;;3583390;40;19929;-67
2021/06/08 04:28:06;;;;;;;;;;;;;;;;;;3583733;40;19936;-67
2021/06/08 04:30:32;;;;;;;;;;;;;;;;;;3582917;40;19936;-66
2021/06/08 04:32:58;;;;;;;;;;;;;;;;;;3580707;40;19935;-67
2021/06/08 04:35:24;;;;;;;;;;;;;;;;;;3580710;40;19929;-67
2021/06/08 04:37:50;;;;;;;;;;;;;;;;;;3579267;40;19936;-67
2021/06/08 04:40:16;;;;;;;;;;;;;;;;;;3576299;40;19929;-67
2021/06/08 04:42:41;;;;;;;;;;;;;;;;;;3585449;40;20194;-67
2021/06/08 04:45:07;;;;;;;;;;;;;;;;;;3583157;40;20272;-67
2021/06/08 04:47:33;;;;;;;;;;;;;;;;;;3580609;40;19929;-67
2021/06/08 04:49:59;;;;;;;;;;;;;;;;;;3580869;40;19969;-67
2021/06/08 04:52:25;;;;;;;;;;;;;;;;;;3581771;40;20011;-67
2021/06/08 04:54:51;;;;;;;;;;;;;;;;;;3582019;40;19972;-67
2021/06/08 04:57:17;;;;;;;;;;;;;;;;;;3580725;40;20280;-67
2021/06/08 04:59:43;;;;;;;;;;;;;;;;;;3586331;40;19937;-67
2021/06/08 05:02:09;;;;;;;;;;;;;;;;;;3580566;40;19929;-67
2021/06/08 05:04:35;;;;;;;;;;;;;;;;;;3586430;40;20200;-67
2021/06/08 05:07:01;;;;;;;;;;;;;;;;;;3575407;40;19943;-67
2021/06/08 05:09:27;;;;;;;;;;;;;;;;;;3580624;40;20273;-67
2021/06/08 05:11:53;;;;;;;;;;;;;;;;;;3582170;40;19928;-67
2021/06/08 05:14:19;;;;;;;;;;;;;;;;;;3578708;40;19929;-67
2021/06/08 05:16:45;;;;;;;;;;;;;;;;;;3578199;40;20178;-67
2021/06/08 05:19:12;;;;;;;;;;;16.90;99.90;;;;;;3581264;40;19929;-67
2021/06/08 05:21:40;;;;;;;;;;;18.20;99.90;;;;;;3568201;40;20011;-67
2021/06/08 05:24:06;;;;;;;;;;;18.20;99.90;;;;;;3580166;40;20270;-67
2021/06/08 05:26:32;;;;;;;;;;;18.30;99.90;;;;;;3567983;40;19940;-67
2021/06/08 05:28:58;;;;;;;;;;;18.30;99.90;;;;;;3583102;40;20277;-67
2021/06/08 05:31:24;;;;;;;;;;;18.40;99.90;;;;;;3570429;40;20416;-67
2021/06/08 05:33:55;;;;;;;;;;;18.50;99.90;;;;;;3574334;40;19933;-67
2021/06/08 05:36:22;;;;;;;;;;;18.50;99.90;;;;;;3581077;40;19941;-67
2021/06/08 05:38:49;;;;;;;;;;;18.50;99.90;;;;;;3580447;40;19937;-66
2021/06/08 05:41:15;;;;;;;;;;;18.60;99.90;;;;;;3580182;40;19941;-67
2021/06/08 05:43:41;;;;;;;;;;;18.60;99.90;;;;;;3570453;40;20172;-66
2021/06/08 05:46:08;;;;;;;;;;;18.70;99.90;;;;;;3580307;40;19972;-67
2021/06/08 05:48:35;;;;;;;;;;;18.70;99.90;;;;;;3580215;40;19970;-66
2021/06/08 05:51:01;;;;;;;;;;;18.80;99.90;;;;;;3570665;40;19932;-66
2021/06/08 05:53:28;;;;;;;;;;;18.80;99.90;;;;;;3571224;40;19933;-66
2021/06/08 05:55:56;;;;;;;;;;;18.80;99.90;;;;;;3574403;40;19937;-66
2021/06/08 05:58:23;;;;;;;;;;;18.90;99.90;;;;;;3580771;40;19937;-66
2021/06/08 06:00:49;;;;;;;;;;;19.00;99.90;;;;;;3580655;40;20278;-66
2021/06/08 06:03:15;;;;;;;;;;;19.00;99.90;;;;;;3582470;40;19937;-66
2021/06/08 06:05:42;;;;;;;;;;;19.00;99.90;;;;;;3585392;40;19945;-67
2021/06/08 06:08:08;;;;;;;;;;;19.10;99.90;;;;;;3587265;40;19932;-66
2021/06/08 06:10:33;;;;;;;;;;;;;;;;;;3583316;40;19973;-66
2021/06/08 06:13:00;;;;;;;;;;;;;;;;;;3583107;40;19935;-66
2021/06/08 06:15:26;;;;;;;;;;;;;;;;;;3583042;40;19929;-66
2021/06/08 06:17:52;;;;;;;;;;;;;;;;;;3584612;40;19957;-66
2021/06/08 06:20:19;;;;;;;;;;;19.00;99.90;;;;;;3579119;40;20015;-66
2021/06/08 06:22:45;;;;;;;;;;;19.30;99.90;;;;;;3580107;40;19932;-66
2021/06/08 06:25:12;;;;;;;;;;;19.20;99.90;;;;;;3579744;40;19933;-66
2021/06/08 06:27:38;;;;;;;;;;;19.20;99.90;;;;;;3578883;40;19937;-66
2021/06/08 06:30:05;;;;;;;;;;;19.20;99.90;;;;;;3580086;40;20208;-66
2021/06/08 06:32:31;;;;;;;;;;;19.30;99.90;;;;;;3582268;40;19933;-67
2021/06/08 06:34:57;;;;;;;;;;;19.40;99.90;;;;;;3582397;40;20312;-66
2021/06/08 06:37:24;;;;;;;;;;;19.40;99.90;;;;;;3562944;40;19941;-66
2021/06/08 06:39:51;;;;;;;;;;;19.50;99.90;;;;;;3581983;40;19932;-66
2021/06/08 06:42:17;;;;;;;;;;;19.50;99.90;;;;;;3580010;40;19992;-67
2021/06/08 06:44:43;;;;;;;;;;;;;;;;;;3583914;40;19941;-67
2021/06/08 06:47:09;;;;;;;;;;;;;;;;;;3582935;40;19935;-67
2021/06/08 06:49:35;;;;;;;;;;;;;;;;;;3580027;40;19941;-67
2021/06/08 06:52:01;;;;;;;;;;;;;;;;;;3579859;40;19936;-66
2021/06/08 06:54:30;;;;;;;;;;;19.50;99.90;;;;;;3579839;40;19991;-66
2021/06/08 06:56:57;;;;;;;;;;;19.90;99.90;;;;;;3582482;40;19973;-67
2021/06/08 06:59:22;;;;;;;;;;;19.70;99.90;;;;;;3582305;40;19979;-67
2021/06/08 07:01:48;;;;;;;;;;;19.80;99.90;;;;;;3570432;40;19932;-67
2021/06/08 07:04:14;;;;;;;;;;;;;;;;;;3580205;40;19937;-67
2021/06/08 07:06:40;;;;;;;;;;;;;;;;;;3568927;40;19948;-67
2021/06/08 07:09:06;;;;;;;;;;;;;;;;;;3569997;40;19936;-67
2021/06/08 07:11:32;;;;;;;;;;;;;;;;;;3569906;40;19945;-67
2021/06/08 07:13:58;;;;;;;;;;;;;;;;;;3569263;40;19933;-67
2021/06/08 07:16:25;;;;;;;;;;;;;;;;;;3570029;40;20218;-67
2021/06/08 07:18:51;;;;;;;;;;;;;;;;;;3569607;40;20194;-67
2021/06/08 07:21:17;;;;;;;;;;;;;;;;;;3560532;40;19940;-67
2021/06/08 07:23:43;;;;;;;;;;;;;;;;;;3576880;40;20356;-67
2021/06/08 07:26:11;;;;;;;;;;;;;;;;;;3569635;40;20011;-67
2021/06/08 07:28:37;;;;;;;;;;;;;;;;;;3570418;40;19972;-67
2021/06/08 07:31:03;;;;;;;;;;;;;;;;;;3575917;40;19933;-67
2021/06/08 07:33:29;;;;;;;;;;;;;;;;;;3569574;40;20190;-67
2021/06/08 07:35:55;;;;;;;;;;;;;;;;;;3569668;40;19933;-67
2021/06/08 07:38:21;;;;;;;;;;;;;;;;;;3569990;40;20275;-67
2021/06/08 07:40:55;;;;;;;;;;;20.60;99.90;;;;;;3574311;40;19937;-67
2021/06/08 07:43:22;;;;;;;;;;;20.60;99.90;;;;;;3569576;40;19973;-67
2021/06/08 07:45:49;;;;;;;;;;;20.60;99.90;;;;;;3560202;40;19941;-67
2021/06/08 07:48:15;;;;;;;;;;;;;;;;;;3569340;40;20288;-67
2021/06/08 07:50:43;;;;;;;;;;;;;;;;;;3571827;40;19929;-67
2021/06/08 07:53:09;;;;;;;;;;;;;;;;;;3566107;40;19929;-67
2021/06/08 07:55:35;;;;;;;;;;;;;;;;;;3575762;40;20159;-68
2021/06/08 07:58:02;;;;;;;;;;;;;;;;;;3570946;40;20186;-67
2021/06/08 08:00:28;;;;;;;;;;;;;;;;;;3571125;40;19929;-67
2021/06/08 08:02:54;;;;;;;;;;;;;;;;;;3570866;40;20286;-67
2021/06/08 08:05:20;;;;;;;;;;;;;;;;;;3584208;40;19939;-67
2021/06/08 08:07:48;;;;;;;;;;;20.70;99.90;;;;;;3581886;40;20193;-67
2021/06/08 08:10:14;;;;;;;;;;;;;;;;;;3582047;40;20320;-67
2021/06/08 08:12:41;;;;;;;;;;;;;;;;;;3580885;40;19932;-67
2021/06/08 08:15:06;;;;;;;;;;;;;;;;;;3580977;40;19944;-67
2021/06/08 08:17:32;;;;;;;;;;;21.30;99.90;;;;;;3585191;40;20174;-67
2021/06/08 08:19:58;;;;;;;;;;;;;;;;;;3583659;40;19933;-67
2021/06/08 08:22:24;;;;;;;;;;;;;;;;;;3576575;40;20287;-67
2021/06/08 08:24:50;;;;;;;;;;;;;;;;;;3577011;40;19983;-67
2021/06/08 08:27:16;;;;;;;;;;;;;;;;;;3587993;40;19933;-67
2021/06/08 08:29:45;;;;;;;;;;;;;;;;;;3580751;40;20012;-67
2021/06/08 08:32:10;;;;;;;;;;;;;;;;;;3580897;40;19933;-67
2021/06/08 08:34:36;;;;;;;;;;;;;;;;;;3580760;40;20266;-67
2021/06/08 08:37:02;;;;;;;;;;;;;;;;;;3585447;40;20280;-67
2021/06/08 08:39:28;;;;;;;;;;;;;;;;;;3580604;40;19929;-67
2021/06/08 08:41:54;;;;;;;;;;;;;;;;;;3584888;40;19929;-67
2021/06/08 08:44:20;;;;;;;;;;;;;;;;;;3576440;40;20335;-68
2021/06/08 08:46:46;;;;;;;;;;;;;;;;;;3587173;40;20039;-67
2021/06/08 08:49:12;;;;;;;;;;;;;;;;;;3578002;40;20015;-67
2021/06/08 08:51:38;;;;;;;;;;;;;;;;;;3580550;40;19968;-67
2021/06/08 08:54:04;;;;;;;;;;;;;;;;;;3559004;40;19926;-67
2021/06/08 08:56:32;;;;;;;;;;;21.90;99.90;;;;;;3565968;40;19929;-67
2021/06/08 08:59:01;;;;;;;;;;;22.40;99.90;;;;;;3563238;40;19940;-67
2021/06/08 09:01:27;;;;;;;;;;;22.30;99.90;;;;;;3561199;40;19949;-68
2021/06/08 09:03:52;;;;;;;;;;;22.40;99.90;;;;;;3559067;40;19936;-67
2021/06/08 09:06:18;;;;;;;;;;;;;;;;;;3558831;40;19941;-68
2021/06/08 09:08:44;;;;;;;;;;;;;;;;;;3553434;40;20023;-68
2021/06/08 09:11:10;;;;;;;;;;;;;;;;;;3562565;40;20032;-68
2021/06/08 09:13:37;;;;;;;;;;;;;;;;;;3562016;40;20015;-67
2021/06/08 09:16:06;;;;;;;;;;;22.40;99.90;;;;;;3562874;40;20360;-67
2021/06/08 09:18:32;;;;;;;;;;;22.60;99.90;;;;;;3561904;40;19945;-68
2021/06/08 09:21:09;;;;;;;;;;;22.60;99.90;;;;;;3561758;40;19933;-67
2021/06/08 09:23:35;;;;;;;;;;;22.70;99.90;;;;;;3562123;40;19937;-67
2021/06/08 09:26:01;;;;;;;;;;;22.70;99.90;;;;;;3582568;40;20017;-67
2021/06/08 09:28:29;;;;;;;;;;;22.80;99.90;;;;;;3584880;40;19941;-68
2021/06/08 09:30:59;;;;;;;;;;;22.80;99.90;;;;;;3582968;40;19952;-67
2021/06/08 09:33:25;;;;;;;;;;;;;;;;;;3563396;40;19933;-67
2021/06/08 09:35:51;;;;;;;;;;;;;;;;;;3582273;40;20030;-68
2021/06/08 09:38:18;;;;;;;;;;;22.80;99.90;;;;;;3590778;40;20014;-67
2021/06/08 09:40:44;;;;;;;;;;;;;;;;;;3581503;40;19941;-67
2021/06/08 09:43:10;;;;;;;;;;;;;;;;;;3578012;40;19933;-67
2021/06/08 09:45:36;;;;;;;;;;;;;;;;;;3582622;40;19939;-67
2021/06/08 09:48:03;;;;;;;;;;;;;;;;;;3588863;40;20193;-67
2021/06/08 09:50:28;;;;;;;;;;;;;;;;;;3583574;40;19933;-67
2021/06/08 09:52:54;;;;;;;;;;;;;;;;;;3582675;40;19932;-67
2021/06/08 09:55:20;;;;;;;;;;;;;;;;;;3586712;40;19933;-67
2021/06/08 09:57:46;;;;;;;;;;;;;;;;;;3585708;40;19936;-67
2021/06/08 10:00:12;;;;;;;;;;;;;;;;;;3578360;40;19933;-67
2021/06/08 10:02:39;;;;;;;;;;;;;;;;;;3583392;40;19940;-68
2021/06/08 10:05:05;;;;;;;;;;;;;;;;;;3583248;40;19936;-67
2021/06/08 10:07:31;;;;;;;;;;;;;;;;;;3583414;40;19968;-67
2021/06/08 10:09:56;;;;;;;;;;;;;;;;;;3583921;40;20300;-68
2021/06/08 10:12:22;;;;;;;;;;;;;;;;;;3582245;40;19955;-67
2021/06/08 10:14:48;;;;;;;;;;;;;;;;;;3580209;40;20270;-67
2021/06/08 10:17:15;;;;;;;;;;;;;;;;;;3579902;40;19933;-67
2021/06/08 10:19:42;;;;;;;;;;;;;;;;;;3580207;40;19932;-67
2021/06/08 10:22:08;;;;;;;;;;;;;;;;;;3580195;40;19932;-67
2021/06/08 10:24:34;;;;;;;;;;;;;;;;;;3580172;40;19933;-67
2021/06/08 10:27:00;;;;;;;;;;;;;;;;;;3586983;40;19955;-67
2021/06/08 10:29:26;;;;;;;;;;;;;;;;;;3580166;40;19933;-67
2021/06/08 10:31:52;;;;;;;;;;;;;;;;;;3579988;40;20023;-67
2021/06/08 10:34:20;;;;;;;;;;;22.90;99.90;;;;;;3584711;40;19932;-68
2021/06/08 10:36:48;;;;;;;;;;;;;;;;;;3570576;40;19933;-68
2021/06/08 10:39:14;;;;;;;;;;;;;;;;;;3586983;40;19936;-68
2021/06/08 10:41:40;;;;;;;;;;;;;;;;;;3582313;40;19929;-67
2021/06/08 10:44:06;;;;;;;;;;;;;;;;;;3581001;40;20013;-69
2021/06/08 10:46:32;;;;;;;;;;;;;;;;;;3582288;40;19937;-68
2021/06/08 10:48:58;;;;;;;;;;;;;;;;;;3579859;40;19929;-67
2021/06/08 10:51:24;;;;;;;;;;;;;;;;;;3584724;40;20321;-68
2021/06/08 10:53:50;;;;;;;;;;;;;;;;;;3579128;40;19929;-67
2021/06/08 10:56:16;;;;;;;;;;;;;;;;;;3578251;40;19936;-68
2021/06/08 10:58:42;;;;;;;;;;;;;;;;;;3579698;40;19928;-68
2021/06/08 11:01:08;;;;;;;;;;;;;;;;;;3579421;40;19940;-68
2021/06/08 11:03:34;;;;;;;;;;;;;;;;;;3579492;40;20010;-68
2021/06/08 11:06:00;;;;;;;;;;;;;;;;;;3578924;40;19994;-67
2021/06/08 11:08:26;;;;;;;;;;;;;;;;;;3579486;40;19940;-68
2021/06/08 11:10:54;;;;;;;;;;;;;;;;;;3578169;40;19934;-67
2021/06/08 11:13:20;;;;;;;;;;;;;;;;;;3579588;40;19936;-68
2021/06/08 11:15:45;;;;;;;;;;;;;;;;;;3579447;40;19970;-67
2021/06/08 11:18:11;;;;;;;;;;;;;;;;;;3576952;40;19928;-68
2021/06/08 11:20:37;;;;;;;;;;;;;;;;;;3579350;40;19935;-68
2021/06/08 11:23:05;;;;;;;;;;;;;;;;;;3578054;40;20178;-68
2021/06/08 11:25:31;;;;;;;;;;;;;;;;;;3578124;40;20010;-68
2021/06/08 11:27:57;;;;;;;;;;;;;;;;;;3584808;40;19973;-68
2021/06/08 11:30:23;;;;;;;;;;;;;;;;;;3579644;40;19944;-68
2021/06/08 11:32:49;;;;;;;;;;;;;;;;;;3578345;40;19935;-68
2021/06/08 11:35:16;;;;;;;;;;;;;;;;;;3575432;40;19937;-68
2021/06/08 11:37:42;;;;;;;;;;;;;;;;;;3578157;40;19947;-68
2021/06/08 11:40:08;;;;;;;;;;;;;;;;;;3579315;40;19933;-68
2021/06/08 11:42:34;;;;;;;;;;;;;;;;;;3579368;40;19936;-68
2021/06/08 11:45:00;;;;;;;;;;;;;;;;;;3580104;40;19952;-68
2021/06/08 11:47:26;;;;;;;;;;;;;;;;;;3586020;40;19929;-68
2021/06/08 11:49:52;;;;;;;;;;;;;;;;;;3582331;40;20256;-68
2021/06/08 11:52:18;;;;;;;;;;;;;;;;;;3578160;40;19976;-68
2021/06/08 11:54:44;;;;;;;;;;;;;;;;;;3579249;40;20203;-68
2021/06/08 11:57:12;;;;;;;;;;;;;;;;;;3579079;40;20269;-68
2021/06/08 11:59:38;;;;;;;;;;;;;;;;;;3578521;40;19941;-68
2021/06/08 12:02:05;;;;;;;;;;;;;;;;;;3574694;40;20265;-68
2021/06/08 12:04:31;;;;;;;;;;;;;;;;;;3575833;40;20290;-68
2021/06/08 12:06:57;;;;;;;;;;;;;;;;;;3571005;40;19944;-68
2021/06/08 12:09:23;;;;;;;;;;;;;;;;;;3576274;40;20278;-68
2021/06/08 12:11:49;;;;;;;;;;;;;;;;;;3569516;40;19984;-68
2021/06/08 12:14:17;;;;;;;;;;;;;;;;;;3560367;40;19936;-67
2021/06/08 12:16:43;;;;;;;;;;;;;;;;;;3577171;40;20015;-68
2021/06/08 12:19:09;;;;;;;;;;;;;;;;;;3572626;40;19937;-67
2021/06/08 12:21:35;;;;;;;;;;;;;;;;;;3576316;40;19941;-67
2021/06/08 12:24:02;;;;;;;;;;;25.90;99.90;;;;;;3569670;40;19929;-68
2021/06/08 12:26:29;;;;;;;;;;;26.00;99.90;;;;;;3559819;40;20300;-67
2021/06/08 12:29:02;;;;;;;;;;;25.70;99.90;;;;;;3572671;40;19933;-67
2021/06/08 12:31:29;;;;;;;;;;;;;;;;;;3568957;40;20016;-67
2021/06/08 12:33:55;;;;;;;;;;;;;;;;;;3574784;40;20288;-67
2021/06/08 12:36:21;;;;;;;;;;;;;;;;;;3572101;40;19937;-67
2021/06/08 12:38:47;;;;;;;;;;;;;;;;;;3569147;40;19929;-67
2021/06/08 12:41:13;;;;;;;;;;;;;;;;;;3576670;40;20281;-67
2021/06/08 12:43:39;;;;;;;;;;;;;;;;;;3578457;40;19929;-67
2021/06/08 12:46:05;;;;;;;;;;;;;;;;;;3569950;40;19944;-67
2021/06/08 12:48:32;;;;;;;;;;;;;;;;;;3573985;40;20196;-67
2021/06/08 12:50:58;;;;;;;;;;;;;;;;;;3572426;40;19960;-67
2021/06/08 12:53:24;;;;;;;;;;;;;;;;;;3571086;40;19929;-67
2021/06/08 12:55:50;;;;;;;;;;;;;;;;;;3573041;40;20195;-67
2021/06/08 12:58:17;;;;;;;;;;;;;;;;;;3568366;40;19944;-67
2021/06/08 13:00:43;;;;;;;;;;;;;;;;;;3573053;40;19929;-67
2021/06/08 13:03:09;;;;;;;;;;;;;;;;;;3578566;40;19968;-68
2021/06/08 13:05:35;;;;;;;;;;;;;;;;;;3577862;40;20280;-68
2021/06/08 13:08:01;;;;;;;;;;;;;;;;;;3582916;40;19936;-68
2021/06/08 13:10:27;;;;;;;;;;;;;;;;;;3582816;40;19936;-67
2021/06/08 13:12:53;;;;;;;;;;;;;;;;;;3580625;40;19929;-67
2021/06/08 13:15:19;;;;;;;;;;;;;;;;;;3587614;40;19935;-67
2021/06/08 13:17:45;;;;;;;;;;;;;;;;;;3580473;40;19928;-67
2021/06/08 13:20:11;;;;;;;;;;;;;;;;;;3587708;40;19961;-68
2021/06/08 13:22:37;;;;;;;;;;;;;;;;;;3580411;40;19936;-68
2021/06/08 13:25:03;;;;;;;;;;;;;;;;;;3580434;40;19928;-69
2021/06/08 13:27:29;;;;;;;;;;;;;;;;;;3583602;40;19928;-68
2021/06/08 13:29:55;;;;;;;;;;;;;;;;;;3584215;40;19939;-68
2021/06/08 13:32:20;;;;;;;;;;;;;;;;;;3573466;40;19935;-68
2021/06/08 13:35:02;;;;;;;;;;;25.60;99.90;;;;;;3583214;40;20170;-68
2021/06/08 13:37:28;;;;;;;;;;;29.60;91.80;;;;;;3581056;40;19943;-68
2021/06/08 13:39:53;;;;;;;;;;;29.40;88.30;;;;;;3590124;40;19932;-68
2021/06/08 13:42:20;;;;;;;;;;;29.30;91.30;;;;;;3583447;40;19969;-68
2021/06/08 13:44:55;;;;;;;;;;;29.50;90.30;;;;;;3583265;40;19933;-68
2021/06/08 13:47:27;;;;;;;;;;;29.60;89.90;;;;;;3585564;40;19937;-68
2021/06/08 13:49:54;;;;;;;;;;;29.60;82.70;;;;;;3583696;40;19932;-69
2021/06/08 13:52:20;;;;;;;;;;;29.40;80.10;;;;;;3580637;40;19940;-68
2021/06/08 13:54:46;;;;;;;;;;;29.10;80.30;;;;;;3580622;40;20294;-68
2021/06/08 14:02:38;;;;;;;;;;;29.20;79.10;;;;;;3580389;40;19951;-69
2021/06/08 14:05:04;;;;;;;;;;;;;;;;;;3572379;40;20295;-68
2021/06/08 14:07:30;;;;;;;;;;;;;;;;;;3587480;40;19937;-68
2021/06/08 14:09:56;;;;;;;;;;;;;;;;;;3574873;40;19929;-68
2021/06/08 14:12:22;;;;;;;;;;;;;;;;;;3584297;40;20188;-68
2021/06/08 14:14:48;;;;;;;;;;;;;;;;;;3580314;40;19929;-68
2021/06/08 14:17:14;;;;;;;;;;;;;;;;;;3580065;40;19936;-68
2021/06/08 14:19:40;;;;;;;;;;;;;;;;;;3580098;40;19940;-68
2021/06/08 14:22:06;;;;;;;;;;;;;;;;;;3580043;40;20284;-68
2021/06/08 14:24:36;;;;;;;;;;;;;;;;;;3585124;40;20266;-69
2021/06/08 14:27:02;;;;;;;;;;;;;;;;;;3581784;40;19929;-68
2021/06/08 14:29:28;;;;;;;;;;;;;;;;;;3580155;40;19973;-68
2021/06/08 14:31:54;;;;;;;;;;;;;;;;;;3580033;40;19929;-68
2021/06/08 14:34:20;;;;;;;;;;;;;;;;;;3580110;40;19933;-68
2021/06/08 14:36:46;;;;;;;;;;;;;;;;;;3577561;40;20210;-68
2021/06/08 14:39:12;;;;;;;;;;;;;;;;;;3584013;40;20277;-68
2021/06/08 14:41:38;;;;;;;;;;;;;;;;;;3575491;40;19933;-68
2021/06/08 14:44:04;;;;;;;;;;;;;;;;;;3575232;40;19943;-68
2021/06/08 14:46:36;;;;;;;;;;;;;;;;;;3579989;40;19936;-68
2021/06/08 14:49:02;;;;;;;;;;;;;;;;;;3584515;40;19936;-68
2021/06/08 14:51:28;;;;;;;;;;;;;;;;;;3579874;40;19929;-68
2021/06/08 14:53:54;;;;;;;;;;;;;;;;;;3577630;40;19928;-68
2021/06/08 14:56:20;;;;;;;;;;;;;;;;;;3586955;40;19928;-68
2021/06/08 14:58:46;;;;;;;;;;;;;;;;;;3579985;40;20209;-68
2021/06/08 15:01:13;;;;;;;;;;;;;;;;;;3581569;40;20012;-70
2021/06/08 15:03:39;;;;;;;;;;;;;;;;;;3577389;40;19949;-68
2021/06/08 15:06:05;;;;;;;;;;;;;;;;;;3577678;40;19937;-68
2021/06/08 15:08:31;;;;;;;;;;;;;;;;;;3579652;40;19941;-68
2021/06/08 15:10:58;;;;;;;;;;;29.20;79.40;;;;;;3570399;40;19929;-68
2021/06/08 15:13:23;;;;;;;;;;;29.30;79.70;;;;;;3577454;40;19976;-68
2021/06/08 15:15:49;;;;;;;;;;;29.20;78.20;;;;;;3579941;40;19932;-68
2021/06/08 15:18:15;;;;;;;;;;;29.10;77.80;;;;;;3579317;40;19939;-69
2021/06/08 15:20:41;;;;;;;;;;;;;;;;;;3579697;40;20189;-68
2021/06/08 15:23:07;;;;;;;;;;;;;;;;;;3571174;40;19938;-68
2021/06/08 15:25:32;;;;;;;;;;;29.30;78.20;;;;;;3578743;40;19937;-68
2021/06/08 15:28:00;;;;;;;;;;;30.30;77.90;;;;;;3579767;40;19994;-68
2021/06/08 15:30:26;;;;;;;;;;;30.40;75.60;;;;;;3579639;40;19939;-68
2021/06/08 15:32:52;;;;;;;;;;;30.30;78.50;;;;;;3586202;40;19933;-68
2021/06/08 15:35:19;;;;;;;;;;;29.70;78.40;;;;;;3581860;40;19973;-68
2021/06/08 15:37:44;;;;;;;;;;;;;;;;;;3584322;40;19933;-68
2021/06/08 15:40:10;;;;;;;;;;;;;;;;;;3577167;40;19935;-68
2021/06/08 15:42:36;;;;;;;;;;;;;;;;;;3579641;40;19933;-70
2021/06/08 15:45:02;;;;;;;;;;;;;;;;;;3582103;40;19929;-68
2021/06/08 15:47:28;;;;;;;;;;;;;;;;;;3584149;40;19955;-68
2021/06/08 15:49:54;;;;;;;;;;;;;;;;;;3577226;40;19935;-68
2021/06/08 15:52:20;;;;;;;;;;;;;;;;;;3579693;40;19940;-68
2021/06/08 15:54:46;;;;;;;;;;;;;;;;;;3586867;40;19957;-68
2021/06/08 15:57:14;;;;;;;;;;;29.30;79.90;;;;;;3574500;40;20186;-68
2021/06/08 15:59:40;;;;;;;;;;;;;;;;;;3581744;40;20290;-68
2021/06/08 16:02:05;;;;;;;;;;;;;;;;;;3579544;40;19940;-68
2021/06/08 16:04:31;;;;;;;;;;;;;;;;;;3579113;40;19932;-67
2021/06/08 16:06:57;;;;;;;;;;;;;;;;;;3579597;40;19975;-67
2021/06/08 16:09:23;;;;;;;;;;;;;;;;;;3578947;40;20015;-67